Time;durP1;ratioP1;P1;durP2;ratioP2;P2;SDS_P1;SDS_P2;PMS_P1;PMS_P2;Temp;Humidity;BMP_temperature;BMP_pressure;BME280_temperature;BME280_humidity;BME280_pressure;Samples;Min_cycle;Max_cycle;Signal;HPM_P1;HPM_P2
2022/09/26 00:02:07;;;;;;;13.73;7.10;;;;;;;;;;5093589;28;20560;-76
2022/09/26 00:04:34;;;;;;;18.58;8.18;;;;;;;;;;5093727;28;20069;-76
2022/09/26 00:07:00;;;;;;;10.82;6.65;;;;;;;;;;5093413;28;20077;-77
2022/09/26 00:09:27;;;;;;;11.07;7.18;;;;;;;;;;5093570;28;20032;-76
2022/09/26 00:11:53;;;;;;;11.35;7.28;;;;;;;;;;5093444;28;20077;-77
2022/09/26 00:14:21;;;;;;;17.83;8.13;;;;;;;;;;5094725;28;20464;-76
2022/09/26 00:16:47;;;;;;;10.65;7.22;;;;;;;;;;5093210;28;20042;-77
2022/09/26 00:19:14;;;;;;;9.00;6.90;;;;;;;;;;5093194;28;20081;-77
2022/09/26 00:21:40;;;;;;;12.13;6.95;;;;;;;;;;5093323;28;20073;-77
2022/09/26 00:24:06;;;;;;;11.73;7.70;;;;;;;;;;5093302;28;20046;-76
2022/09/26 00:26:33;;;;;;;11.27;6.63;;;;;;;;;;5093222;28;20080;-77
2022/09/26 00:29:03;;;;;;;10.30;6.60;;;;;;;;;;5093185;28;20024;-77
2022/09/26 00:31:30;;;;;;;11.25;7.38;;;;;;;;;;5092810;28;20064;-76
2022/09/26 00:33:57;;;;;;;11.95;7.75;;;;;;;;;;5092959;28;20157;-77
2022/09/26 00:36:23;;;;;;;11.93;7.32;;;;;;;;;;5093141;28;20024;-77
2022/09/26 00:38:49;;;;;;;12.85;8.18;;;;;;;;;;5092947;28;20494;-77
2022/09/26 00:41:16;;;;;;;14.48;9.23;;;;;;;;;;5092999;28;20039;-77
2022/09/26 00:43:46;;;;;;;11.95;7.10;;;;;;;;;;5092856;28;20020;-77
2022/09/26 00:46:31;;;;;;;10.63;6.88;;;;;;;;;;5092751;28;20032;-77
2022/09/26 00:49:16;;;;;;;11.13;7.82;;;;;;;;;;5092779;28;20477;-77
2022/09/26 00:51:45;;;;;;;9.60;6.60;;;;;;;;;;5093993;28;20057;-76
2022/09/26 00:54:13;;;;;;;11.43;7.97;;;;;;;;;;5092698;28;20024;-78
2022/09/26 00:56:39;;;;;;;9.88;7.20;;;;;;;;;;5093946;28;20032;-77
2022/09/26 00:59:13;;;;;;;10.77;6.28;;;;;;;;;;5092422;28;20020;-76
2022/09/26 01:01:38;;;;;;;;;;;;;;;;;;5093004;28;20032;-77
2022/09/26 01:04:05;;;;;;;10.05;6.60;;;;;;;;;;5092065;28;19911;-77
2022/09/26 01:06:32;;;;;;;13.90;7.55;;;;;;;;;;5092242;28;20032;-76
2022/09/26 01:08:59;;;;;;;13.65;9.43;;;;;;;;;;5093691;28;20445;-77
2022/09/26 01:11:26;;;;;;;13.30;8.70;;;;;;;;;;5092291;28;20032;-77
2022/09/26 01:13:53;;;;;;;14.88;8.90;;;;;;;;;;5092365;28;20031;-77
2022/09/26 01:16:19;;;;;;;17.10;7.80;;;;;;;;;;5092410;28;20024;-77
2022/09/26 01:18:46;;;;;;;13.50;8.43;;;;;;;;;;5090355;28;20020;-77
2022/09/26 01:21:28;;;;;;;12.90;7.32;;;;;;;;;;5055331;28;20148;-77
2022/09/26 01:24:12;;;;;;;11.48;7.30;;;;;;;;;;5055081;28;20040;-76
2022/09/26 01:26:41;;;;;;;10.65;6.85;;;;;;;;;;5055310;28;20066;-78
2022/09/26 01:29:07;;;;;;;14.05;9.25;;;;;;;;;;5055271;28;20028;-77
2022/09/26 01:31:40;;;;;;;14.40;9.18;;;;;;;;;;5073101;28;20035;-77
2022/09/26 01:34:15;;;;;;;14.40;9.65;;;;;;;;;;5055121;28;20025;-77
2022/09/26 01:37:04;;;;;;;12.50;7.32;;;;;;;;;;5055305;28;20037;-76
2022/09/26 01:39:46;;;;;;;13.25;9.13;;;;;;;;;;5042412;28;20029;-76
2022/09/26 01:42:21;;;;;;;14.35;9.63;;;;;;;;;;5055209;28;20424;-77
2022/09/26 01:45:00;;;;;;;14.00;10.23;;;;;;;;;;5054460;28;20397;-77
2022/09/26 01:47:43;;;;;;;16.58;8.15;;;;;;;;;;5055155;28;20024;-77
2022/09/26 01:50:22;;;;;;;12.35;7.90;;;;;;;;;;5055038;28;20033;-77
2022/09/26 01:52:55;;;;;;;12.10;8.55;;;;;;;;;;5072985;28;20040;-77
2022/09/26 01:55:25;;;;;;;17.23;10.32;;;;;;;;;;5055067;28;20039;-76
2022/09/26 01:58:00;;;;;;;19.55;9.30;;;;;;;;;;5072862;28;20322;-77
2022/09/26 02:00:27;;;;;;;19.95;12.35;;;;;;;;;;5054988;28;20033;-77
2022/09/26 02:02:54;;;;;;;18.35;11.23;;;;;;;;;;5054915;28;20025;-77
2022/09/26 02:05:35;;;;;;;16.63;9.65;;;;;;;;;;5054888;28;20029;-76
2022/09/26 02:08:04;;;;;;;14.13;10.05;;;;;;;;;;5072967;28;20028;-77
2022/09/26 02:10:34;;;;;;;20.25;10.38;;;;;;;;;;5054598;28;20045;-76
2022/09/26 02:13:04;;;;;;;15.27;9.02;;;;;;;;;;5072909;28;20036;-77
2022/09/26 02:15:31;;;;;;;19.35;10.88;;;;;;;;;;5054846;28;20017;-77
2022/09/26 02:18:01;;;;;;;20.13;9.05;;;;;;;;;;5054889;28;20056;-76
2022/09/26 02:20:32;;;;;;;13.80;8.10;;;;;;;;;;5072632;28;20523;-77
2022/09/26 02:22:59;;;;;;;20.58;8.57;;;;;;;;;;5054862;28;20032;-77
2022/09/26 02:25:27;;;;;;;13.63;9.32;;;;;;;;;;5054523;28;20029;-77
2022/09/26 02:27:53;;;;;;;14.25;8.13;;;;;;;;;;5054729;28;20021;-76
2022/09/26 02:30:19;;;;;;;12.95;8.45;;;;;;;;;;5054699;28;20032;-76
2022/09/26 02:32:45;;;;;;;18.95;9.40;;;;;;;;;;5072568;28;20067;-77
2022/09/26 02:37:58;;;;;;;16.58;9.30;;;;;;;;;;5072721;28;20043;-76
2022/09/26 02:40:27;;;;;;;31.45;10.48;;;;;;;;;;5054600;28;20060;-77
2022/09/26 02:42:59;;;;;;;13.25;8.15;;;;;;;;;;5054292;28;20029;-77
2022/09/26 02:45:38;;;;;;;18.13;10.73;;;;;;;;;;5054635;28;20413;-76
2022/09/26 02:48:22;;;;;;;16.55;8.77;;;;;;;;;;5054474;28;20032;-77
2022/09/26 02:51:07;;;;;;;16.52;9.65;;;;;;;;;;5054501;28;20060;-77
2022/09/26 02:53:45;;;;;;;15.18;8.40;;;;;;;;;;5054292;28;20036;-77
2022/09/26 02:56:16;;;;;;;15.63;8.32;;;;;;;;;;5054987;28;20031;-76
2022/09/26 02:59:01;;;;;;;13.85;9.52;;;;;;;;;;5058053;28;20029;-77
2022/09/26 03:01:31;;;;;;;17.35;10.60;;;;;;;;;;5057779;28;20420;-78
2022/09/26 03:04:01;;;;;;;18.55;10.70;;;;;;;;;;5057939;28;20036;-76
2022/09/26 03:06:31;;;;;;;21.15;11.77;;;;;;;;;;5058026;28;20021;-77
2022/09/26 03:08:58;;;;;;;17.80;11.13;;;;;;;;;;5076072;28;20059;-76
2022/09/26 03:11:25;;;;;;;23.60;10.38;;;;;;;;;;5057805;28;20557;-76
2022/09/26 03:13:53;;;;;;;22.38;13.00;;;;;;;;;;5057586;28;20032;-75
2022/09/26 03:16:20;;;;;;;20.42;13.20;;;;;;;;;;5057721;28;20029;-77
2022/09/26 03:18:52;;;;;;;19.83;10.18;;;;;;;;;;5057471;28;20058;-78
2022/09/26 03:21:18;;;;;;;26.98;13.13;;;;;;;;;;5057736;28;20032;-77
2022/09/26 03:23:44;;;;;;;21.70;10.95;;;;;;;;;;5057599;28;20424;-77
2022/09/26 03:26:12;;;;;;;26.35;11.23;;;;;;;;;;5075643;28;20039;-77
2022/09/26 03:28:40;;;;;;;22.10;13.05;;;;;;;;;;5057322;28;20021;-77
2022/09/26 03:31:06;;;;;;;23.05;11.60;;;;;;;;;;5057293;28;20070;-76
2022/09/26 03:33:33;;;;;;;27.90;14.07;;;;;;;;;;5057293;28;20028;-76
2022/09/26 03:35:59;;;;;;;32.47;12.10;;;;;;;;;;5057463;28;20024;-77
2022/09/26 03:38:26;;;;;;;28.00;14.63;;;;;;;;;;5057247;28;20037;-77
2022/09/26 03:40:53;;;;;;;34.10;14.85;;;;;;;;;;5056999;28;20051;-77
2022/09/26 03:43:19;;;;;;;30.40;13.35;;;;;;;;;;5057252;28;20074;-78
2022/09/26 03:45:46;;;;;;;33.67;15.30;;;;;;;;;;5057088;28;20029;-77
2022/09/26 03:48:12;;;;;;;26.90;12.40;;;;;;;;;;5057172;28;20068;-78
2022/09/26 03:50:38;;;;;;;32.95;15.80;;;;;;;;;;5056777;28;20020;-77
2022/09/26 03:53:05;;;;;;;30.50;16.55;;;;;;;;;;5057060;28;20469;-78
2022/09/26 03:55:31;;;;;;;29.83;12.98;;;;;;;;;;5056917;28;20024;-77
2022/09/26 03:57:59;;;;;;;30.77;13.63;;;;;;;;;;5056775;28;20489;-77
2022/09/26 04:00:25;;;;;;;34.22;16.88;;;;;;;;;;5074790;28;20510;-78
2022/09/26 04:02:51;;;;;;;38.30;16.42;;;;;;;;;;5056809;28;20075;-76
2022/09/26 04:05:17;;;;;;;32.78;13.75;;;;;;;;;;5056805;28;20025;-77
2022/09/26 04:07:43;;;;;;;32.53;13.00;;;;;;;;;;5056350;28;20067;-76
2022/09/26 04:10:10;;;;;;;35.67;17.25;;;;;;;;;;5056410;28;20032;-78
2022/09/26 04:12:37;;;;;;;26.65;14.57;;;;;;;;;;5056283;28;20040;-76
2022/09/26 04:15:03;;;;;;;28.38;12.32;;;;;;;;;;5056116;28;20031;-77
2022/09/26 04:17:30;;;;;;;18.25;10.68;;;;;;;;;;5044861;28;20056;-77
2022/09/26 04:19:56;;;;;;;19.63;12.88;;;;;;;;;;5055878;28;20051;-77
2022/09/26 04:22:22;;;;;;;18.35;10.68;;;;;;;;;;5072655;28;20032;-76
2022/09/26 04:24:48;;;;;;;22.08;12.55;;;;;;;;;;5072846;28;20496;-77
2022/09/26 04:27:14;;;;;;;21.58;12.43;;;;;;;;;;5074150;28;20089;-75
2022/09/26 04:29:42;;;;;;;18.30;10.55;;;;;;;;;;5072900;28;20021;-76
2022/09/26 04:32:08;;;;;;;21.67;12.75;;;;;;;;;;5072778;28;20040;-78
2022/09/26 04:34:37;;;;;;;17.58;10.50;;;;;;;;;;5072664;28;20556;-76
2022/09/26 04:37:04;;;;;;;15.82;9.55;;;;;;;;;;5072930;28;20032;-77
2022/09/26 04:39:30;;;;;;;21.92;12.77;;;;;;;;;;5074096;28;20017;-76
2022/09/26 04:41:56;;;;;;;20.92;12.65;;;;;;;;;;5072568;28;20496;-77
2022/09/26 04:44:22;;;;;;;20.85;11.00;;;;;;;;;;5072743;28;20021;-77
2022/09/26 04:46:48;;;;;;;19.83;12.15;;;;;;;;;;5072662;28;20548;-76
2022/09/26 04:49:14;;;;;;;21.02;13.15;;;;;;;;;;5072423;28;20027;-75
2022/09/26 04:51:40;;;;;;;20.45;11.30;;;;;;;;;;5073734;28;20076;-75
2022/09/26 04:54:07;;;;;;;19.95;12.57;;;;;;;;;;5074000;28;20016;-75
2022/09/26 04:56:34;;;;;;;19.45;11.65;;;;;;;;;;5090339;28;20043;-75
2022/09/26 04:59:01;;;;;;;21.10;13.48;;;;;;;;;;5074565;28;20132;-76
2022/09/26 05:01:27;;;;;;;20.02;10.23;;;;;;;;;;5079274;28;20024;-75
2022/09/26 05:03:54;;;;;;;17.60;11.57;;;;;;;;;;5093504;28;20031;-75
2022/09/26 05:06:20;;;;;;;13.20;8.13;;;;;;;;;;5092324;28;20111;-74
2022/09/26 05:08:47;;;;;;;15.00;8.20;;;;;;;;;;5084757;28;20031;-75
2022/09/26 05:11:14;;;;;;;13.88;8.27;;;;;;;;;;5081946;28;20522;-75
2022/09/26 05:13:40;;;;;;;16.50;10.20;;;;;;;;;;5082956;28;20442;-75
2022/09/26 05:16:10;;;;;;;11.85;7.63;;;;;;;;;;5082839;28;20024;-75
2022/09/26 05:18:37;;;;;;;13.02;7.70;;;;;;;;;;5090673;28;20024;-75
2022/09/26 05:21:05;;;;;;;12.38;7.25;;;;;;;;;;5054963;28;20173;-76
2022/09/26 05:26:23;;;;;;;10.52;6.68;;;;;;;;;;5073479;28;20070;-75
2022/09/26 05:29:00;;;;;;;11.88;7.80;;;;;;;;;;5055003;28;20032;-75
2022/09/26 05:31:27;;;;;;;13.48;9.88;;;;;;;;;;5055018;28;20028;-75
2022/09/26 05:33:56;;;;;;;17.00;9.20;;;;;;;;;;5055150;28;20498;-75
2022/09/26 05:36:23;;;;;;;15.43;8.85;;;;;;;;;;5054864;28;20107;-75
2022/09/26 05:38:50;;;;;;;14.63;9.85;;;;;;;;;;5055058;28;20028;-75
2022/09/26 05:41:16;;;;;;;16.83;11.02;;;;;;;;;;5054661;28;20109;-75
2022/09/26 05:43:42;;;;;;;14.35;9.32;;;;;;;;;;5054607;28;20033;-75
2022/09/26 05:46:09;;;;;;;16.08;11.43;;;;;;;;;;5072859;28;20025;-74
2022/09/26 05:48:36;;;;;;;20.27;11.45;;;;;;;;;;5054627;28;20028;-76
2022/09/26 05:51:09;;;;;;;17.30;9.35;;;;;;;;;;5059100;28;20033;-79
2022/09/26 05:53:36;;;;;;;14.20;9.15;;;;;;;;;;5052574;28;20025;-76
2022/09/26 05:56:03;;;;;;;13.60;8.60;;;;;;;;;;5052770;28;20091;-76
2022/09/26 05:58:33;;;;;;;14.68;10.25;;;;;;;;;;5054821;28;20041;-77
2022/09/26 06:01:07;;;;;;;14.85;9.82;;;;;;;;;;5052537;28;20025;-76
2022/09/26 06:03:33;;;;;;;;;;;;;;;;;;5037310;28;20439;-76
2022/09/26 06:06:07;;;;;;;14.07;9.02;;;;;;;;;;5054707;28;19904;-76
2022/09/26 06:08:33;;;;;;;17.42;9.55;;;;;;;;;;5054769;28;20115;-76
2022/09/26 06:11:07;;;;;;;13.98;9.40;;;;;;;;;;5054289;28;20025;-77
2022/09/26 06:13:33;;;;;;;13.85;9.35;;;;;;;;;;5054773;28;20086;-76
2022/09/26 06:16:07;;;;;;;14.15;9.48;;;;;;;;;;5072598;28;20498;-76
2022/09/26 06:18:33;;;;;;;;;;;;;;;;;;5073135;28;20033;-76
2022/09/26 06:21:06;;;;;;;15.85;11.35;;;;;;;;;;5072231;28;19915;-76
2022/09/26 06:23:33;;;;;;;;;;;;;;;;;;5055022;28;20116;-76
2022/09/26 06:25:59;;;;;;;16.15;10.48;;;;;;;;;;5054533;28;19954;-77
2022/09/26 06:28:26;;;;;;;14.45;9.10;;;;;;;;;;5054549;28;20074;-76
2022/09/26 06:30:52;;;;;;;13.95;10.07;;;;;;;;;;5055838;28;20134;-77
2022/09/26 06:33:19;;;;;;;15.63;10.40;;;;;;;;;;5058200;28;20412;-79
2022/09/26 06:35:45;;;;;;;15.77;10.55;;;;;;;;;;5058034;28;20055;-77
2022/09/26 06:38:12;;;;;;;14.18;10.13;;;;;;;;;;5076268;28;20033;-77
2022/09/26 06:40:38;;;;;;;18.45;11.18;;;;;;;;;;5060733;28;20029;-78
2022/09/26 06:43:04;;;;;;;17.20;11.35;;;;;;;;;;5037738;28;20171;-77
2022/09/26 06:45:30;;;;;;;16.40;11.15;;;;;;;;;;5038029;28;20029;-77
2022/09/26 06:48:00;;;;;;;16.00;11.45;;;;;;;;;;5045793;28;20050;-77
2022/09/26 06:50:26;;;;;;;15.10;10.85;;;;;;;;;;5049559;28;20489;-76
2022/09/26 06:52:52;;;;;;;16.33;11.48;;;;;;;;;;5064396;28;20040;-76
2022/09/26 06:55:18;;;;;;;18.20;11.77;;;;;;;;;;5075456;28;20031;-76
2022/09/26 06:57:44;;;;;;;16.08;11.20;;;;;;;;;;5039770;28;20029;-77
2022/09/26 07:00:12;;;;;;;18.17;11.05;;;;;;;;;;5037947;28;20040;-77
2022/09/26 07:02:38;;;;;;;16.63;11.43;;;;;;;;;;5055711;28;20017;-76
2022/09/26 07:05:04;;;;;;;19.10;11.80;;;;;;;;;;5039552;28;20473;-76
2022/09/26 07:07:31;;;;;;;18.50;12.20;;;;;;;;;;5048667;28;20371;-76
2022/09/26 07:09:58;;;;;;;17.60;11.77;;;;;;;;;;5057209;28;20043;-76
2022/09/26 07:12:24;;;;;;;16.38;10.95;;;;;;;;;;5057441;28;20074;-76
2022/09/26 07:14:50;;;;;;;15.32;10.38;;;;;;;;;;5075424;28;20408;-76
2022/09/26 07:17:17;;;;;;;14.50;10.05;;;;;;;;;;5057284;28;20111;-76
2022/09/26 07:19:43;;;;;;;15.40;10.85;;;;;;;;;;5073507;28;20097;-77
2022/09/26 07:22:10;;;;;;;16.42;10.73;;;;;;;;;;5093805;28;20526;-76
2022/09/26 07:24:36;;;;;;;16.38;10.98;;;;;;;;;;5095760;28;20031;-76
2022/09/26 07:27:02;;;;;;;15.23;11.25;;;;;;;;;;5095467;28;20410;-76
2022/09/26 07:29:29;;;;;;;18.48;12.00;;;;;;;;;;5094100;28;20020;-76
2022/09/26 07:31:55;;;;;;;16.42;11.98;;;;;;;;;;5095300;28;20059;-76
2022/09/26 07:34:24;;;;;;;18.45;12.18;;;;;;;;;;5094074;28;20028;-76
2022/09/26 07:36:51;;;;;;;19.00;12.25;;;;;;;;;;5095216;28;20020;-76
2022/09/26 07:39:17;;;;;;;19.08;12.85;;;;;;;;;;5093980;28;20024;-76
2022/09/26 07:41:45;;;;;;;18.73;12.88;;;;;;;;;;5094675;28;20373;-77
2022/09/26 07:44:14;;;;;;;21.33;12.65;;;;;;;;;;5093806;28;20032;-76
2022/09/26 07:52:10;;;;;;;19.38;13.77;;;;;;;;;;5089338;28;20101;-76
2022/09/26 07:54:36;;;;;;;19.25;12.93;;;;;;;;;;5088753;28;20386;-76
2022/09/26 07:57:03;;;;;;;18.27;12.85;;;;;;;;;;5094749;28;20032;-77
2022/09/26 07:59:34;;;;;;;17.88;12.30;;;;;;;;;;5085266;28;20381;-76
2022/09/26 08:02:01;;;;;;;16.15;11.57;;;;;;;;;;5074665;28;20028;-76
2022/09/26 08:04:27;;;;;;;16.85;10.15;;;;;;;;;;5073140;28;20576;-76
2022/09/26 08:06:54;;;;;;;14.23;9.88;;;;;;;;;;5073123;28;20370;-77
2022/09/26 08:09:20;;;;;;;12.93;9.95;;;;;;;;;;5073273;28;20469;-76
2022/09/26 08:11:46;;;;;;;13.98;8.77;;;;;;;;;;5095330;28;20455;-76
2022/09/26 08:14:13;;;;;;;11.55;7.85;;;;;;;;;;5113613;28;20077;-76
2022/09/26 08:16:40;;;;;;;12.30;8.32;;;;;;;;;;5113423;28;20019;-76
2022/09/26 08:19:07;;;;;;;15.27;8.30;;;;;;;;;;5110172;28;20075;-76
2022/09/26 08:21:33;;;;;;;13.95;7.78;;;;;;;;;;5073925;28;20027;-76
2022/09/26 08:23:59;;;;;;;13.43;8.30;;;;;;;;;;5071189;28;20062;-76
2022/09/26 08:26:25;;;;;;;10.77;6.85;;;;;;;;;;5074051;28;20063;-77
2022/09/26 08:28:52;;;;;;;16.05;6.47;;;;;;;;;;5056218;28;20028;-77
2022/09/26 08:31:19;;;;;;;11.75;5.60;;;;;;;;;;5055562;28;20107;-75
2022/09/26 08:33:46;;;;;;;8.20;4.90;;;;;;;;;;5056045;28;20036;-76
2022/09/26 08:36:16;;;;;;;8.60;4.88;;;;;;;;;;5055973;28;20016;-76
2022/09/26 08:38:42;;;;;;;7.03;4.57;;;;;;;;;;5055979;28;20032;-77
2022/09/26 08:41:24;;;;;;;5.93;3.67;;;;;;;;;;5049057;28;20039;-77
2022/09/26 08:43:56;;;;;;;6.57;4.20;;;;;;;;;;5058574;28;20386;-76
2022/09/26 08:49:28;;;;;;;7.65;4.85;;;;;;;;;;5053619;28;20412;-76
2022/09/26 08:51:57;;;;;;;8.05;4.43;;;;;;;;;;5053551;28;20032;-75
2022/09/26 08:54:26;;;;;;;10.07;4.82;;;;;;;;;;5035659;28;20028;-76
2022/09/26 08:56:58;;;;;;;7.95;4.95;;;;;;;;;;5035658;28;20125;-76
2022/09/26 08:59:27;;;;;;;6.97;4.20;;;;;;;;;;5053661;28;20017;-76
2022/09/26 09:01:54;;;;;;;6.40;3.95;;;;;;;;;;5035525;28;20477;-78
2022/09/26 09:04:23;;;;;;;6.32;4.05;;;;;;;;;;5035332;28;20024;-76
2022/09/26 09:06:54;;;;;;;8.10;4.82;;;;;;;;;;5053406;28;20031;-76
2022/09/26 09:09:20;;;;;;;7.78;4.93;;;;;;;;;;5053397;28;20029;-76
2022/09/26 09:11:49;;;;;;;7.75;4.50;;;;;;;;;;5035219;28;20052;-75
2022/09/26 09:14:24;;;;;;;7.13;3.47;;;;;;;;;;5035481;28;20025;-76
2022/09/26 09:17:01;;;;;;;7.30;3.83;;;;;;;;;;5035160;28;20099;-75
2022/09/26 09:19:27;;;;;;;6.80;3.60;;;;;;;;;;5046106;28;20083;-76
2022/09/26 09:22:11;;;;;;;6.20;3.28;;;;;;;;;;5073052;28;20029;-76
2022/09/26 09:24:39;;;;;;;6.00;3.58;;;;;;;;;;5073062;28;20058;-75
2022/09/26 09:27:20;;;;;;;6.40;3.30;;;;;;;;;;5071661;28;20024;-75
2022/09/26 09:30:02;;;;;;;4.17;3.00;;;;;;;;;;5073216;28;20033;-75
2022/09/26 09:32:40;;;;;;;4.05;2.85;;;;;;;;;;5071575;28;20044;-75
2022/09/26 09:35:11;;;;;;;4.88;2.75;;;;;;;;;;5073100;28;20017;-75
2022/09/26 09:37:42;;;;;;;8.60;3.63;;;;;;;;;;5071654;28;20123;-76
2022/09/26 09:40:12;;;;;;;5.97;3.70;;;;;;;;;;5071768;28;20021;-75
2022/09/26 09:42:54;;;;;;;5.80;3.28;;;;;;;;;;5071778;28;20036;-75
2022/09/26 09:45:28;;;;;;;4.90;3.10;;;;;;;;;;5072818;28;20025;-75
2022/09/26 09:47:55;;;;;;;4.07;2.70;;;;;;;;;;5071673;28;20028;-75
2022/09/26 09:50:24;;;;;;;4.82;3.22;;;;;;;;;;5080358;28;20024;-75
2022/09/26 09:53:19;;;;;;;6.10;3.20;;;;;;;;;;5092955;28;20028;-75
2022/09/26 09:56:01;;;;;;;4.68;3.10;;;;;;;;;;5075738;28;20043;-75
2022/09/26 09:58:28;;;;;;;;;;;;;;;;;;5093498;28;20067;-75
2022/09/26 10:01:14;;;;;;;4.85;2.67;;;;;;;;;;5089547;28;20329;-77
2022/09/26 10:03:54;;;;;;;4.32;3.35;;;;;;;;;;5067702;28;20063;-77
2022/09/26 10:06:21;;;;;;;4.30;2.67;;;;;;;;;;5073912;28;20115;-76
2022/09/26 10:08:49;;;;;;;5.32;3.25;;;;;;;;;;5069373;28;20078;-76
2022/09/26 10:11:40;;;;;;;4.95;3.28;;;;;;;;;;5085999;28;20036;-76
2022/09/26 10:14:12;;;;;;;4.97;3.13;;;;;;;;;;5090344;28;20023;-76
2022/09/26 10:16:58;;;;;;;6.03;3.87;;;;;;;;;;5083885;28;20023;-78
2022/09/26 10:19:36;;;;;;;6.80;4.40;;;;;;;;;;5077469;28;20055;-77
2022/09/26 10:22:08;;;;;;;6.90;4.63;;;;;;;;;;5076547;28;20111;-77
2022/09/26 10:24:39;;;;;;;6.18;4.35;;;;;;;;;;5090022;28;20024;-76
2022/09/26 10:27:34;;;;;;;5.60;3.85;;;;;;;;;;5087131;28;20013;-76
2022/09/26 10:30:01;;;;;;;5.63;3.95;;;;;;;;;;5079077;28;20481;-75
2022/09/26 10:32:28;;;;;;;5.28;3.70;;;;;;;;;;5076116;28;20439;-75
2022/09/26 10:35:06;;;;;;;4.35;3.00;;;;;;;;;;5083419;28;20020;-75
2022/09/26 10:37:35;;;;;;;4.40;2.85;;;;;;;;;;5085201;28;20055;-76
2022/09/26 10:42:46;;;;;;;4.88;3.25;;;;;;;;;;5084684;28;20512;-76
2022/09/26 10:45:26;;;;;;;6.40;3.60;;;;;;;;;;5086249;28;20043;-75
2022/09/26 10:47:53;;;;;;;4.72;3.03;;;;;;;;;;5086868;28;20073;-76
2022/09/26 10:50:26;;;;;;;4.65;3.08;;;;;;;;;;5083764;28;20059;-75
2022/09/26 10:53:07;;;;;;;4.60;3.00;;;;;;;;;;5083166;28;20036;-77
2022/09/26 10:55:38;;;;;;;5.55;2.88;;;;;;;;;;5084335;28;20070;-75
2022/09/26 10:58:07;;;;;;;5.60;2.90;;;;;;;;;;5085282;28;20020;-75
2022/09/26 11:00:35;;;;;;;3.38;2.58;;;;;;;;;;5077106;28;20033;-79
2022/09/26 11:03:02;;;;;;;4.85;2.63;;;;;;;;;;5074205;28;20397;-75
2022/09/26 11:08:19;;;;;;;3.50;2.53;;;;;;;;;;5084885;28;20039;-78
2022/09/26 11:10:47;;;;;;;6.07;2.97;;;;;;;;;;5085672;28;20016;-80
2022/09/26 11:13:18;;;;;;;4.53;2.65;;;;;;;;;;5084952;28;20036;-82
2022/09/26 11:15:59;;;;;;;4.40;2.30;;;;;;;;;;5084887;28;20020;-76
2022/09/26 11:18:45;;;;;;;3.63;2.60;;;;;;;;;;5078399;28;20020;-77
2022/09/26 11:21:20;;;;;;;7.53;3.17;;;;;;;;;;5074040;28;20043;-76
2022/09/26 11:23:53;;;;;;;5.22;2.92;;;;;;;;;;5074131;28;20372;-77
2022/09/26 11:26:48;;;;;;;5.05;2.85;;;;;;;;;;5073822;28;20469;-78
2022/09/26 11:29:33;;;;;;;4.88;2.80;;;;;;;;;;5046023;28;20119;-75
2022/09/26 11:32:00;;;;;;;3.30;2.55;;;;;;;;;;5073877;28;20040;-75
2022/09/26 11:34:30;;;;;;;3.83;2.30;;;;;;;;;;5075091;28;20024;-82
2022/09/26 11:37:06;;;;;;;4.07;2.00;;;;;;;;;;5073812;28;20381;-77
2022/09/26 11:39:39;;;;;;;3.55;1.77;;;;;;;;;;5073667;28;20020;-77
2022/09/26 11:42:14;;;;;;;3.85;2.45;;;;;;;;;;5075067;28;20020;-76
2022/09/26 11:44:52;;;;;;;3.08;2.10;;;;;;;;;;5074756;28;20020;-75
2022/09/26 11:47:35;;;;;;;3.38;2.35;;;;;;;;;;5074237;28;20029;-75
2022/09/26 11:50:01;;;;;;;;;;;;;;;;;;5074089;28;20028;-75
2022/09/26 11:52:28;;;;;;;4.05;2.58;;;;;;;;;;5074778;28;19913;-75
2022/09/26 11:55:00;;;;;;;4.68;2.30;;;;;;;;;;5074698;28;20486;-76
2022/09/26 11:57:33;;;;;;;3.30;2.22;;;;;;;;;;5073412;28;20458;-75
2022/09/26 12:00:07;;;;;;;4.35;2.75;;;;;;;;;;5073368;28;20070;-76
2022/09/26 12:02:57;;;;;;;8.35;2.95;;;;;;;;;;5074246;28;20103;-76
2022/09/26 12:05:26;;;;;;;4.50;3.05;;;;;;;;;;5073471;28;20020;-75
2022/09/26 12:08:01;;;;;;;8.70;3.17;;;;;;;;;;5074475;28;20035;-76
2022/09/26 12:10:33;;;;;;;6.43;3.40;;;;;;;;;;5073065;28;20024;-75
2022/09/26 12:13:11;;;;;;;4.43;2.95;;;;;;;;;;5072920;28;20375;-76
2022/09/26 12:15:43;;;;;;;4.25;3.00;;;;;;;;;;5073110;28;20028;-76
2022/09/26 12:18:15;;;;;;;5.22;3.50;;;;;;;;;;5072974;28;20085;-75
2022/09/26 12:21:19;;;;;;;5.32;3.30;;;;;;;;;;5072535;28;20048;-75
2022/09/26 12:23:49;;;;;;;5.15;3.70;;;;;;;;;;5012311;28;20041;-75
2022/09/26 12:26:20;;;;;;;6.05;3.92;;;;;;;;;;5012383;28;20030;-76
2022/09/26 12:28:52;;;;;;;6.15;3.88;;;;;;;;;;5046233;28;20037;-75
2022/09/26 12:31:28;;;;;;;6.32;3.92;;;;;;;;;;5072469;28;20032;-76
2022/09/26 12:33:54;;;;;;;5.18;3.50;;;;;;;;;;5074055;28;20020;-75
2022/09/26 12:36:30;;;;;;;4.13;2.88;;;;;;;;;;5073757;28;20024;-75
2022/09/26 12:39:14;;;;;;;3.30;2.40;;;;;;;;;;5072637;28;20052;-75
2022/09/26 12:41:59;;;;;;;3.20;2.35;;;;;;;;;;5072598;28;20413;-81
2022/09/26 12:44:26;;;;;;;3.58;2.58;;;;;;;;;;5072533;28;20020;-74
2022/09/26 12:47:07;;;;;;;3.35;2.20;;;;;;;;;;5072450;28;20063;-75
2022/09/26 12:49:33;;;;;;;4.20;2.70;;;;;;;;;;5073490;28;20024;-74
2022/09/26 12:52:19;;;;;;;3.00;1.92;;;;;;;;;;5093884;28;20040;-75
2022/09/26 12:54:55;;;;;;;6.57;3.00;;;;;;;;;;5092201;28;20024;-75
2022/09/26 12:57:24;;;;;;;4.43;2.72;;;;;;;;;;5092532;28;20032;-76
2022/09/26 12:59:57;;;;;;;3.63;2.30;;;;;;;;;;5092331;28;20024;-76
2022/09/26 13:02:22;;;;;;;;;;;;;;;;;;5094223;28;20126;-76
2022/09/26 13:04:58;;;;;;;4.90;2.47;;;;;;;;;;5093660;28;20368;-75
2022/09/26 13:07:24;;;;;;;3.92;2.42;;;;;;;;;;5092116;28;20031;-78
2022/09/26 13:09:56;;;;;;;5.00;3.17;;;;;;;;;;5092275;28;20047;-80
2022/09/26 13:12:30;;;;;;;5.30;3.13;;;;;;;;;;5091982;28;20071;-76
2022/09/26 13:15:31;;;;;;;10.88;2.78;;;;;;;;;;5067813;28;20358;-77
2022/09/26 13:18:17;;;;;;;4.25;2.40;;;;;;;;;;5054377;28;20029;-77
2022/09/26 13:20:52;;;;;;;4.03;2.45;;;;;;;;;;5070658;28;20087;-78
2022/09/26 13:23:27;;;;;;;3.42;2.40;;;;;;;;;;5037868;28;20503;-76
2022/09/26 13:25:55;;;;;;;4.55;2.80;;;;;;;;;;5051001;28;20035;-77
2022/09/26 13:28:24;;;;;;;4.60;2.83;;;;;;;;;;5051108;28;20087;-75
2022/09/26 13:31:02;;;;;;;4.13;2.70;;;;;;;;;;5062277;28;20064;-73
2022/09/26 13:33:33;;;;;;;5.03;2.40;;;;;;;;;;5044706;28;20035;-76
2022/09/26 13:36:00;;;;;;;4.93;2.70;;;;;;;;;;5044374;28;20036;-75
2022/09/26 13:38:36;;;;;;;3.83;2.30;;;;;;;;;;5067897;28;20122;-74
2022/09/26 13:41:21;;;;;;;4.53;2.72;;;;;;;;;;5058969;28;20086;-75
2022/09/26 13:44:05;;;;;;;4.93;2.72;;;;;;;;;;5070138;28;20497;-75
2022/09/26 13:46:51;;;;;;;4.05;2.60;;;;;;;;;;5069175;28;20063;-76
2022/09/26 13:49:23;;;;;;;5.20;2.65;;;;;;;;;;5082348;28;20384;-79
2022/09/26 13:52:09;;;;;;;3.88;2.75;;;;;;;;;;5080834;28;20108;-79
2022/09/26 13:54:44;;;;;;;4.47;2.30;;;;;;;;;;5081200;28;20169;-79
2022/09/26 13:57:30;;;;;;;3.72;2.55;;;;;;;;;;5082380;28;20024;-78
2022/09/26 13:59:56;;;;;;;5.80;2.65;;;;;;;;;;5084054;28;20381;-78
2022/09/26 14:02:23;;;;;;;5.60;3.05;;;;;;;;;;5083275;28;20106;-77
2022/09/26 14:05:01;;;;;;;4.65;3.17;;;;;;;;;;5079872;28;20020;-79
2022/09/26 14:10:24;;;;;;;4.10;2.38;;;;;;;;;;5083432;28;20385;-75
2022/09/26 14:13:07;;;;;;;3.80;2.47;;;;;;;;;;5080197;28;20029;-79
2022/09/26 14:15:48;;;;;;;2.72;1.92;;;;;;;;;;5082508;28;20059;-78
2022/09/26 14:18:18;;;;;;;3.03;1.83;;;;;;;;;;5082208;28;20035;-78
2022/09/26 14:21:13;;;;;;;4.10;2.58;;;;;;;;;;5081856;28;20051;-79
2022/09/26 14:23:47;;;;;;;3.58;2.30;;;;;;;;;;5064236;28;20520;-79
2022/09/26 14:26:13;;;;;;;5.25;2.47;;;;;;;;;;5082346;28;20458;-78
2022/09/26 14:28:40;;;;;;;4.40;2.60;;;;;;;;;;5080818;28;20017;-78
2022/09/26 14:31:11;;;;;;;5.28;2.45;;;;;;;;;;5080353;28;20077;-79
2022/09/26 14:33:38;;;;;;;4.38;3.00;;;;;;;;;;5073821;28;20029;-77
2022/09/26 14:36:36;;;;;;;5.53;2.40;;;;;;;;;;5079182;28;20044;-78
2022/09/26 14:39:03;;;;;;;5.55;2.67;;;;;;;;;;5054809;28;20037;-79
2022/09/26 14:41:32;;;;;;;5.60;2.83;;;;;;;;;;5070754;28;20198;-77
2022/09/26 14:44:00;;;;;;;4.60;3.20;;;;;;;;;;5071136;28;20358;-80
2022/09/26 14:46:28;;;;;;;5.18;2.50;;;;;;;;;;5071400;28;20028;-82
2022/09/26 14:49:05;;;;;;;6.63;3.50;;;;;;;;;;5071281;28;20051;-79
2022/09/26 14:51:40;;;;;;;4.97;3.30;;;;;;;;;;5072328;28;20139;-81
2022/09/26 14:54:22;;;;;;;3.97;2.80;;;;;;;;;;5075111;28;20039;-82
2022/09/26 14:56:58;;;;;;;4.70;3.00;;;;;;;;;;5076187;28;20024;-79
2022/09/26 14:59:24;;;;;;;5.28;3.13;;;;;;;;;;5074952;28;20025;-80
2022/09/26 15:02:09;;;;;;;4.82;3.22;;;;;;;;;;5074713;28;20056;-79
2022/09/26 15:04:36;;;;;;;3.88;2.95;;;;;;;;;;5076209;28;20025;-78
2022/09/26 15:07:04;;;;;;;7.22;3.38;;;;;;;;;;5074631;28;20418;-80
2022/09/26 15:09:30;;;;;;;5.53;3.40;;;;;;;;;;5074705;28;20400;-79
2022/09/26 15:11:58;;;;;;;4.53;3.17;;;;;;;;;;5076148;28;20082;-78
2022/09/26 15:14:34;;;;;;;5.00;3.63;;;;;;;;;;5074565;28;20442;-79
2022/09/26 15:17:01;;;;;;;7.03;3.25;;;;;;;;;;5074574;28;20055;-79
2022/09/26 15:19:33;;;;;;;6.28;3.58;;;;;;;;;;5074208;28;20056;-78